^^
Station Historical Data
Daily Summary for May 17, 2018 Units:  Metric    English   Both
« Previous Day
Next Day »
Daily Weekly Monthly Yearly Custom
  High: Low: Average:
Temperature: -17.8 °C 16.3 °C 19.1 °C
Dew Point: -17.8 °C 16.1 °C 17.9 °C
Humidity: Humidity% 77% 93%
Wind Speed: 0km/h 0km/h 0.3km/h
Wind Gust: 0km/h - -
Wind- - SSE
Pressure: 0 hPa 1022.6 hPa -
Precipitation: 11.94 mm    
Historical Graphs
 
 
Tabular Data for May 17, 2018
Time Temperature Dew Point Pressure Wind Wind Speed Wind Gust Humidity Rainfall Rate (Hourly)
-17.8 °C -17.8 °C 0 hPa Calm     Humidity% 0 mm
00:03 17.3 °C 17.1 °C 1025.6 hPa Calm     99% 0 mm
00:08 17.2 °C 17 °C 1025.6 hPa Calm     99% 0 mm
00:13 17.2 °C 17 °C 1025.6 hPa Calm     99% 0 mm
00:18 17.2 °C 17 °C 1025.6 hPa Calm     99% 0 mm
00:28 17.2 °C 17 °C 1025.6 hPa Calm     99% 0 mm
00:33 17.2 °C 17 °C 1025.6 hPa Calm   1.6 km/h 99% 0 mm
00:39 17.2 °C 17 °C 1025.6 hPa Calm   1.6 km/h 99% 0 mm
00:44 17.1 °C 16.9 °C 1025.6 hPa Calm     99% 0 mm
00:49 17.1 °C 16.9 °C 1025.6 hPa Calm     99% 0 mm
00:54 17.1 °C 16.9 °C 1025.6 hPa Calm     99% 0 mm
00:59 17.2 °C 17 °C 1025.6 hPa Calm     99% 0 mm
01:04 17.2 °C 17 °C 1025.6 hPa Calm   1.6 km/h 99% 0 mm
01:09 17.2 °C 17 °C 1025.6 hPa Calm     99% 0 mm
01:14 17.3 °C 17.1 °C 1025.6 hPa Calm     99% 0 mm
01:29 17.2 °C 17 °C 1025.6 hPa Calm     99% 0 mm
01:39 17.1 °C 16.9 °C 1025.6 hPa Calm     99% 0 mm
01:44 17.2 °C 17 °C 1025.6 hPa Calm   1.6 km/h 99% 0 mm
01:49 17.2 °C 17 °C 1025.6 hPa Calm     99% 0 mm
02:04 17.2 °C 17 °C 1025.6 hPa Calm     99% 0 mm
02:14 17.2 °C 17 °C 1025.6 hPa Calm     99% 0 mm
02:19 17.2 °C 17 °C 1025.6 hPa Calm     99% 0 mm
02:24 17.2 °C 17 °C 1025.6 hPa Calm   1.6 km/h 99% 0 mm
02:29 17.2 °C 17 °C 1025.6 hPa Calm     99% 0 mm
02:34 17.2 °C 17 °C 1025.6 hPa Calm     99% 0 mm
02:40 17.2 °C 17 °C 1025.6 hPa Calm     99% 0 mm
02:45 17.1 °C 16.9 °C 1025.3 hPa Calm     99% 0 mm
02:50 17.2 °C 17 °C 1025.3 hPa Calm     99% 0 mm
02:55 17.1 °C 16.9 °C 1025.3 hPa Calm     99% 0 mm
03:00 17.2 °C 17 °C 1025.3 hPa Calm     99% 0 mm
03:05 17.2 °C 17 °C 1025.3 hPa Calm     99% 0 mm
03:15 17.1 °C 16.9 °C 1024.9 hPa Calm     99% 0 mm
03:20 17.1 °C 16.9 °C 1025.3 hPa Calm     99% 0 mm
03:25 17.1 °C 16.9 °C 1025.3 hPa Calm     99% 0 mm
03:30 17 °C 16.8 °C 1025.3 hPa Calm     99% 0 mm
03:35 16.9 °C 16.7 °C 1024.9 hPa Calm   1.6 km/h 99% 0 mm
03:40 17 °C 16.8 °C 1025.3 hPa Calm   1.6 km/h 99% 0 mm
03:45 17 °C 16.8 °C 1024.9 hPa Calm     99% 0 mm
03:50 16.9 °C 16.7 °C 1024.9 hPa Calm     99% 0 mm
03:55 16.9 °C 16.7 °C 1024.9 hPa Calm     99% 0 mm
04:00 16.9 °C 16.7 °C 1024.9 hPa Calm     99% 0 mm
04:05 16.8 °C 16.6 °C 1024.9 hPa Calm     99% 0 mm
04:10 16.8 °C 16.6 °C 1024.9 hPa Calm     99% 0 mm
04:16 16.8 °C 16.6 °C 1024.9 hPa Calm     99% 0 mm
04:31 16.7 °C 16.5 °C 1024.9 hPa Calm     99% 0 mm
04:46 16.7 °C 16.5 °C 1025.3 hPa Calm     99% 0 mm
04:51 16.6 °C 16.4 °C 1025.3 hPa Calm     99% 0 mm
05:01 16.6 °C 16.4 °C 1024.9 hPa Calm   1.6 km/h 99% 0 mm
05:11 16.5 °C 16.3 °C 1024.9 hPa Calm     99% 0 mm
05:16 16.5 °C 16.3 °C 1025.3 hPa Calm     99% 0 mm
05:21 16.4 °C 16.2 °C 1025.3 hPa Calm     99% 0 mm
05:26 16.4 °C 16.2 °C 1024.9 hPa Calm     99% 0 mm
05:31 16.3 °C 16.1 °C 1025.3 hPa Calm     99% 0 mm
05:41 16.3 °C 16.1 °C 1025.3 hPa Calm     99% 0 mm
05:46 16.3 °C 16.1 °C 1025.3 hPa Calm     99% 0 mm
05:51 16.3 °C 16.1 °C 1025.3 hPa Calm     99% 0 mm
05:56 16.3 °C 16.1 °C 1025.3 hPa Calm     99% 0 mm
06:01 16.3 °C 16.1 °C 1025.3 hPa Calm     99% 0 mm
06:11 16.4 °C 16.2 °C 1025.3 hPa Calm     99% 0 mm
06:21 16.4 °C 16.2 °C 1025.3 hPa Calm     99% 0 mm
06:26 16.4 °C 16.2 °C 1024.9 hPa Calm     99% 0 mm
06:31 16.5 °C 16.3 °C 1024.9 hPa Calm   1.6 km/h 99% 0 mm
06:36 16.5 °C 16.3 °C 1025.3 hPa Calm     99% 0 mm
06:41 16.5 °C 16.3 °C 1025.3 hPa Calm     99% 0 mm
06:46 16.5 °C 16.3 °C 1025.3 hPa Calm     99% 0 mm
06:56 16.6 °C 16.4 °C 1025.6 hPa Calm     99% 0 mm
07:01 16.6 °C 16.6 °C 1025.6 hPa Calm   1.6 km/h 100% 0 mm
07:06 16.6 °C 16.4 °C 1025.6 hPa Calm     99% 0 mm
07:11 16.7 °C 16.5 °C 1025.6 hPa Calm     99% 0 mm
07:16 16.7 °C 16.5 °C 1025.6 hPa Calm     99% 0 mm
07:21 16.6 °C 16.4 °C 1025.6 hPa Calm     99% 0 mm
07:26 16.7 °C 16.5 °C 1025.6 hPa Calm     99% 0 mm
07:31 16.8 °C 16.8 °C 1025.6 hPa Calm     100% 0 mm
07:36 16.9 °C 16.9 °C 1025.6 hPa Calm     100% 0 mm
07:46 16.9 °C 16.7 °C 1025.6 hPa NE 1.4 km/h 3.2 km/h 99% 0 mm
07:51 16.9 °C 16.7 °C 1025.6 hPa Calm   1.6 km/h 99% 0 mm
07:56 17.1 °C 16.9 °C 1025.6 hPa Calm     99% 0 mm
08:01 17.2 °C 17 °C 1025.6 hPa Calm   1.6 km/h 99% 0 mm
08:06 17.3 °C 17.1 °C 1026 hPa Calm     99% 0 mm
08:11 17.5 °C 17.3 °C 1026 hPa Calm     99% 0 mm
08:16 17.7 °C 17.5 °C 1026 hPa Calm     99% 0 mm
08:21 17.7 °C 17.5 °C 1025.6 hPa Calm     99% 0 mm
08:26 17.6 °C 17.4 °C 1025.6 hPa Calm   1.6 km/h 99% 0 mm
08:31 17.7 °C 17.4 °C 1025.6 hPa Calm     98% 0 mm
08:36 17.8 °C 17.5 °C 1025.6 hPa Calm     98% 0 mm
08:41 17.9 °C 17.6 °C 1025.6 hPa Calm   1.6 km/h 98% 0 mm
08:46 17.9 °C 17.6 °C 1025.6 hPa Calm   1.6 km/h 98% 0 mm
08:51 18 °C 17.5 °C 1025.6 hPa Calm     97% 0 mm
08:57 18.1 °C 17.6 °C 1025.6 hPa Calm   1.6 km/h 97% 0 mm
09:02 18.3 °C 17.8 °C 1025.6 hPa Calm   1.6 km/h 97% 0 mm
09:07 18.4 °C 17.8 °C 1025.6 hPa Calm   1.6 km/h 96% 0 mm
09:12 18.7 °C 18 °C 1026 hPa Calm     96% 0 mm
09:17 19.1 °C 18.3 °C 1026 hPa Calm     95% 0 mm
09:22 19.4 °C 18.4 °C 1026 hPa Calm     94% 0 mm
09:27 19.6 °C 18.3 °C 1025.6 hPa Calm     92% 0 mm
09:32 19.8 °C 18.6 °C 1026 hPa ESE 1.6 km/h 1.6 km/h 93% 0 mm
09:42 20.2 °C 18.5 °C 1025.6 hPa WSW 1.4 km/h 1.6 km/h 90% 0 mm
09:57 20.9 °C 18.5 °C 1025.6 hPa WNW 1.4 km/h 3.2 km/h 86% 0 mm
10:02 20.8 °C 18.7 °C 1025.6 hPa Calm   1.6 km/h 88% 0 mm
10:07 20.8 °C 18.7 °C 1025.6 hPa SE 1.4 km/h 1.6 km/h 88% 0 mm
10:12 20.7 °C 18.5 °C 1025.6 hPa NE 3.2 km/h 3.2 km/h 87% 0 mm
10:17 20.6 °C 18.7 °C 1025.6 hPa Calm   1.6 km/h 89% 0 mm
10:22 20.8 °C 18.9 °C 1025.6 hPa SE 1.4 km/h 1.6 km/h 89% 0 mm
10:27 20.9 °C 18.8 °C 1025.6 hPa East 1.4 km/h 3.2 km/h 88% 0 mm
10:32 21 °C 18.8 °C 1025.6 hPa ENE 1.4 km/h 3.2 km/h 87% 0 mm
10:37 21.1 °C 18.9 °C 1025.6 hPa ESE 3.2 km/h 3.2 km/h 87% 0 mm
10:42 21.2 °C 19.1 °C 1025.6 hPa Calm     88% 0 mm
10:47 21.3 °C 18.5 °C 1025.6 hPa Calm   1.6 km/h 84% 0 mm
10:52 21.5 °C 18.7 °C 1025.6 hPa Calm     84% 0 mm
10:57 21.7 °C 19.3 °C 1025.6 hPa Calm     86% 0 mm
11:02 21.9 °C 19.6 °C 1025.6 hPa Calm   1.6 km/h 87% 0 mm
11:07 21.9 °C 19.1 °C 1025.6 hPa Calm   1.6 km/h 84% 0 mm
11:12 21.9 °C 18.9 °C 1025.6 hPa Calm   1.6 km/h 83% 0 mm
11:23 21.8 °C 18.8 °C 1025.6 hPa WNW 3.2 km/h 3.2 km/h 83% 0 mm
11:28 21.7 °C 19.3 °C 1025.6 hPa Calm     86% 0 mm
11:33 21.7 °C 19.3 °C 1025.6 hPa Calm   1.6 km/h 86% 0 mm
11:43 21.8 °C 18.8 °C 1025.6 hPa Calm   1.6 km/h 83% 0 mm
11:58 22 °C 19 °C 1025.6 hPa WNW 3.2 km/h 3.2 km/h 83% 0 mm
12:03 21.9 °C 19.1 °C 1025.6 hPa Calm   1.6 km/h 84% 0 mm
12:13 21.6 °C 19.7 °C 1025.6 hPa Calm   1.6 km/h 89% 0.25 mm
12:23 21.2 °C 19.8 °C 1025.6 hPa Calm     92% 0.76 mm
12:28 21.1 °C 19.9 °C 1025.6 hPa Calm     93% 0.76 mm
12:33 21.1 °C 19.9 °C 1025.6 hPa Calm   1.6 km/h 93% 0.76 mm
12:38 21.1 °C 20.1 °C 1025.6 hPa Calm   1.6 km/h 94% 1.02 mm
12:48 21.5 °C 20.7 °C 1025.3 hPa Calm   1.6 km/h 95% 1.02 mm
12:53 21.6 °C 20.4 °C 1025.3 hPa Calm   3.2 km/h 93% 1.02 mm
13:13 22 °C 19.9 °C 1025.3 hPa Calm   1.6 km/h 88% 1.02 mm
13:18 22.3 °C 20.6 °C 1024.9 hPa Calm   4.8 km/h 90% 0.76 mm
13:23 22.4 °C 20.3 °C 1024.9 hPa ESE 3.2 km/h 3.2 km/h 88% 0.51 mm
13:33 22.7 °C 20.4 °C 1024.9 hPa Calm     87% 0.51 mm
13:43 23.3 °C 20.2 °C 1024.9 hPa Calm   3.2 km/h 83% 0.25 mm
13:53 23.2 °C 20.2 °C 1024.6 hPa Calm   1.6 km/h 83% 0.25 mm
13:58 23.2 °C 19.8 °C 1024.6 hPa Calm   3.2 km/h 81% 0.25 mm
14:03 22.9 °C 19.7 °C 1024.6 hPa East 1.4 km/h 3.2 km/h 82% 0.25 mm
14:13 23.1 °C 19.7 °C 1024.3 hPa East 1.4 km/h 3.2 km/h 81% 0 mm
14:18 22.9 °C 19.7 °C 1024.3 hPa ESE 4.7 km/h 9.7 km/h 82% 0 mm
14:23 22.8 °C 19.6 °C 1024.3 hPa ESE 4.7 km/h 8 km/h 82% 0 mm
14:33 22.1 °C 19.1 °C 1024.3 hPa ENE 3.2 km/h 8 km/h 83% 0 mm
15:14 21.4 °C 19.5 °C 1023.9 hPa Calm   3.2 km/h 89% 1.02 mm
15:29 21.9 °C 19.5 °C 1023.6 hPa Calm   1.6 km/h 86% 1.02 mm
15:34 22.3 °C 19.5 °C 1023.6 hPa WNW 1.4 km/h 3.2 km/h 84% 1.02 mm
15:39 22.7 °C 19.7 °C 1023.6 hPa WNW 3.2 km/h 3.2 km/h 83% 1.02 mm
15:44 22.9 °C 19.5 °C 1023.2 hPa Calm   3.2 km/h 81% 1.02 mm
16:14 24.1 °C 21 °C 1023.2 hPa West 1.4 km/h 1.6 km/h 83% 0 mm
16:19 23.9 °C 20.4 °C 1023.2 hPa Calm   1.6 km/h 81% 0 mm
16:44 23.1 °C 18.8 °C 1022.9 hPa WNW 1.4 km/h 3.2 km/h 77% 0 mm
16:49 23.1 °C 18.8 °C 1022.9 hPa NE 4.7 km/h 4.8 km/h 77% 0 mm
16:54 23.3 °C 19 °C 1022.9 hPa West 1.4 km/h 4.8 km/h 77% 0 mm
17:04 23.6 °C 19.7 °C 1023.2 hPa Calm   8 km/h 79% 0 mm
17:14 22.4 °C 19 °C 1023.2 hPa ENE 1.4 km/h 1.6 km/h 81% 0 mm
17:19 22.1 °C 19.5 °C 1023.2 hPa WNW 3.2 km/h 3.2 km/h 85% 0 mm
17:25 22 °C 19.2 °C 1022.9 hPa Calm   1.6 km/h 84% 0 mm
17:30 21.8 °C 19.5 °C 1022.9 hPa Calm   1.6 km/h 87% 0 mm
17:40 21.6 °C 19.5 °C 1022.6 hPa Calm   1.6 km/h 88% 0 mm
17:45 21.5 °C 19.6 °C 1022.6 hPa Calm   1.6 km/h 89% 0 mm
17:55 21.2 °C 19.5 °C 1022.6 hPa Calm   1.6 km/h 90% 0 mm
18:05 20.8 °C 19.5 °C 1022.6 hPa Calm     92% 0 mm
18:15 20.7 °C 19.4 °C 1022.6 hPa Calm     92% 0 mm
18:20 20.7 °C 19.5 °C 1022.6 hPa Calm     93% 0 mm
18:30 21.9 °C 20.5 °C 1022.9 hPa Calm   1.6 km/h 92% 0 mm
18:35 22.6 °C 20.7 °C 1022.9 hPa Calm     89% 0 mm
18:40 23.3 °C 20.6 °C 1022.9 hPa ENE 1.4 km/h 1.6 km/h 85% 0 mm
18:50 23.2 °C 20.7 °C 1022.9 hPa Calm   1.6 km/h 86% 0 mm
18:55 22.9 °C 20.1 °C 1022.9 hPa Calm   1.6 km/h 84% 0 mm
19:00 23.3 °C 20.6 °C 1022.6 hPa Calm   1.6 km/h 85% 0 mm
19:10 22.6 °C 20.3 °C 1022.9 hPa Calm   1.6 km/h 87% 0 mm
19:21 21.7 °C 20.2 °C 1022.9 hPa Calm     91% 0 mm
19:26 21.4 °C 19.7 °C 1022.9 hPa Calm   1.6 km/h 90% 0 mm
19:31 21.1 °C 18.7 °C 1023.2 hPa Calm   3.2 km/h 86% 0 mm
19:36 20.8 °C 18.2 °C 1023.2 hPa Calm     85% 0 mm
19:41 20.7 °C 18.1 °C 1023.2 hPa Calm   3.2 km/h 85% 0 mm
19:46 20.6 °C 17.8 °C 1023.2 hPa Calm   3.2 km/h 84% 0 mm
19:51 20.5 °C 18.3 °C 1023.2 hPa Calm   1.6 km/h 87% 0 mm
19:56 20.2 °C 18.5 °C 1023.2 hPa Calm   1.6 km/h 90% 0 mm
20:01 19.8 °C 18.3 °C 1023.2 hPa Calm   1.6 km/h 91% 0 mm
20:06 19.7 °C 18.5 °C 1023.6 hPa Calm   1.6 km/h 93% 0 mm
20:11 19.6 °C 18.4 °C 1023.6 hPa Calm   1.6 km/h 93% 0 mm
20:21 19.8 °C 18.1 °C 1023.6 hPa NE 6.4 km/h 11.3 km/h 90% 0 mm
20:31 20.3 °C 18.2 °C 1023.9 hPa Calm   3.2 km/h 88% 0 mm
20:36 20.1 °C 18.2 °C 1023.9 hPa Calm   3.2 km/h 89% 0 mm
20:41 19.8 °C 17.9 °C 1023.9 hPa Calm     89% 0 mm
20:46 19.8 °C 18.1 °C 1023.9 hPa NE 7.9 km/h 8 km/h 90% 0.25 mm
20:51 20 °C 18.3 °C 1023.9 hPa Calm   3.2 km/h 90% 0.25 mm
20:56 19.7 °C 18.4 °C 1023.9 hPa Calm   1.6 km/h 92% 0.76 mm
21:06 19.2 °C 18.2 °C 1023.9 hPa Calm     94% 1.27 mm
21:12 18.9 °C 18.1 °C 1023.9 hPa Calm     95% 1.27 mm
21:17 18.8 °C 18.1 °C 1023.9 hPa Calm     96% 1.27 mm
21:22 18.8 °C 18.1 °C 1023.9 hPa Calm     96% 1.27 mm
21:27 18.7 °C 18.2 °C 1024.3 hPa Calm     97% 1.52 mm
21:32 18.6 °C 18.1 °C 1024.3 hPa Calm     97% 1.52 mm
21:37 18.6 °C 18.1 °C 1024.3 hPa Calm     97% 1.52 mm
21:42 18.6 °C 18.1 °C 1024.3 hPa Calm   1.6 km/h 97% 1.52 mm
21:47 18.6 °C 18.3 °C 1024.6 hPa ESE 1.4 km/h 1.6 km/h 98% 1.27 mm
21:52 18.7 °C 18.4 °C 1024.6 hPa NE 4.7 km/h 6.4 km/h 98% 1.52 mm
21:57 18.7 °C 18.2 °C 1024.3 hPa Calm     97% 1.52 mm
22:07 18.6 °C 18.1 °C 1024.6 hPa Calm   1.6 km/h 97% 1.02 mm
22:12 18.6 °C 18.1 °C 1024.6 hPa Calm     97% 1.27 mm
22:22 18.6 °C 18.3 °C 1024.6 hPa Calm     98% 1.78 mm
22:32 18.6 °C 18.3 °C 1024.6 hPa Calm   4.8 km/h 98% 2.54 mm
22:47 18.4 °C 18.1 °C 1024.9 hPa Calm     98% 3.05 mm
22:52 18.4 °C 18.1 °C 1024.9 hPa Calm     98% 2.79 mm
22:57 18.4 °C 18.1 °C 1024.9 hPa Calm     98% 2.29 mm
23:02 18.4 °C 18.1 °C 1024.9 hPa Calm     98% 2.29 mm
23:08 18.4 °C 18.1 °C 1024.9 hPa Calm     98% 2.29 mm
23:13 18.4 °C 18.1 °C 1024.9 hPa Calm     98% 2.03 mm
23:23 18.4 °C 18.2 °C 1024.9 hPa Calm   1.6 km/h 99% 2.54 mm
23:28 18.4 °C 18.2 °C 1024.9 hPa Calm     99% 2.29 mm
23:38 18.4 °C 18.2 °C 1024.9 hPa Calm     99% 2.79 mm
23:43 18.3 °C 18.1 °C 1024.9 hPa Calm     99% 5.08 mm
WheeWeather.com
Compliments of Weather Underground - 2.25 mb